sensor_id;sensor_type;location;lat;lon;timestamp;temperature;humidity
14962;DHT22;56489;53.166;10.864;2022-12-01T00:01:22;3.80;99.90
14962;DHT22;56489;53.166;10.864;2022-12-01T00:03:49;3.70;99.90
14962;DHT22;56489;53.166;10.864;2022-12-01T00:06:17;3.70;99.90
14962;DHT22;56489;53.166;10.864;2022-12-01T00:08:44;3.70;99.90
14962;DHT22;56489;53.166;10.864;2022-12-01T00:11:32;3.70;99.90
14962;DHT22;56489;53.166;10.864;2022-12-01T00:13:59;3.60;99.90
14962;DHT22;56489;53.166;10.864;2022-12-01T00:16:26;3.60;99.90
14962;DHT22;56489;53.166;10.864;2022-12-01T00:18:53;3.50;99.90
14962;DHT22;56489;53.166;10.864;2022-12-01T00:21:20;3.50;99.90
14962;DHT22;56489;53.166;10.864;2022-12-01T00:23:49;3.50;99.90
14962;DHT22;56489;53.166;10.864;2022-12-01T00:26:17;3.60;99.90
14962;DHT22;56489;53.166;10.864;2022-12-01T00:28:47;3.50;99.90
14962;DHT22;56489;53.166;10.864;2022-12-01T00:31:14;3.50;99.90
14962;DHT22;56489;53.166;10.864;2022-12-01T00:33:40;3.50;99.90
14962;DHT22;56489;53.166;10.864;2022-12-01T00:36:07;3.50;99.90
14962;DHT22;56489;53.166;10.864;2022-12-01T00:38:34;3.50;99.90
14962;DHT22;56489;53.166;10.864;2022-12-01T00:41:01;3.50;99.90
14962;DHT22;56489;53.166;10.864;2022-12-01T00:43:28;3.50;99.90
14962;DHT22;56489;53.166;10.864;2022-12-01T00:45:54;3.50;99.90
14962;DHT22;56489;53.166;10.864;2022-12-01T00:48:26;3.50;99.90
14962;DHT22;56489;53.166;10.864;2022-12-01T00:50:53;3.40;99.90
14962;DHT22;56489;53.166;10.864;2022-12-01T00:53:20;3.40;99.90
14962;DHT22;56489;53.166;10.864;2022-12-01T00:55:47;3.50;99.90
14962;DHT22;56489;53.166;10.864;2022-12-01T00:58:13;3.50;99.90
14962;DHT22;56489;53.166;10.864;2022-12-01T01:00:40;3.40;99.90
14962;DHT22;56489;53.166;10.864;2022-12-01T01:03:08;3.50;99.90
14962;DHT22;56489;53.166;10.864;2022-12-01T01:05:36;3.50;99.90
14962;DHT22;56489;53.166;10.864;2022-12-01T01:08:06;3.50;99.90
14962;DHT22;56489;53.166;10.864;2022-12-01T01:10:36;3.50;99.90
14962;DHT22;56489;53.166;10.864;2022-12-01T01:13:03;3.50;99.90
14962;DHT22;56489;53.166;10.864;2022-12-01T01:15:30;3.50;99.90
14962;DHT22;56489;53.166;10.864;2022-12-01T01:17:57;3.50;99.90
14962;DHT22;56489;53.166;10.864;2022-12-01T01:20:23;3.50;99.90
14962;DHT22;56489;53.166;10.864;2022-12-01T01:22:50;3.50;99.90
14962;DHT22;56489;53.166;10.864;2022-12-01T01:25:17;3.60;99.90
14962;DHT22;56489;53.166;10.864;2022-12-01T01:27:44;3.60;99.90
14962;DHT22;56489;53.166;10.864;2022-12-01T01:30:11;3.50;99.90
14962;DHT22;56489;53.166;10.864;2022-12-01T01:32:38;3.40;99.90
14962;DHT22;56489;53.166;10.864;2022-12-01T01:35:05;3.40;99.90
14962;DHT22;56489;53.166;10.864;2022-12-01T01:37:32;3.40;99.90
14962;DHT22;56489;53.166;10.864;2022-12-01T01:39:58;3.40;99.90
14962;DHT22;56489;53.166;10.864;2022-12-01T01:42:25;3.40;99.90
14962;DHT22;56489;53.166;10.864;2022-12-01T01:44:53;3.30;99.90
14962;DHT22;56489;53.166;10.864;2022-12-01T01:47:23;3.30;99.90
14962;DHT22;56489;53.166;10.864;2022-12-01T01:49:51;3.30;99.90
14962;DHT22;56489;53.166;10.864;2022-12-01T01:52:18;3.20;99.90
14962;DHT22;56489;53.166;10.864;2022-12-01T01:54:45;3.20;99.90
14962;DHT22;56489;53.166;10.864;2022-12-01T01:57:13;3.20;99.90
14962;DHT22;56489;53.166;10.864;2022-12-01T01:59:42;3.20;99.90
14962;DHT22;56489;53.166;10.864;2022-12-01T02:02:11;3.30;99.90
14962;DHT22;56489;53.166;10.864;2022-12-01T02:04:39;3.20;99.90
14962;DHT22;56489;53.166;10.864;2022-12-01T02:07:07;3.00;99.90
14962;DHT22;56489;53.166;10.864;2022-12-01T02:09:34;3.00;99.90
14962;DHT22;56489;53.166;10.864;2022-12-01T02:28:01;2.80;99.90
14962;DHT22;56489;53.166;10.864;2022-12-01T02:33:15;2.80;99.90
14962;DHT22;56489;53.166;10.864;2022-12-01T02:38:17;2.80;99.90
14962;DHT22;56489;53.166;10.864;2022-12-01T02:43:30;1.60;99.90
14962;DHT22;56489;53.166;10.864;2022-12-01T02:46:07;2.80;99.90
14962;DHT22;56489;53.166;10.864;2022-12-01T02:48:37;2.70;99.90
14962;DHT22;56489;53.166;10.864;2022-12-01T02:51:08;2.70;99.90
14962;DHT22;56489;53.166;10.864;2022-12-01T02:53:35;2.60;99.90
14962;DHT22;56489;53.166;10.864;2022-12-01T02:56:04;2.70;99.90
14962;DHT22;56489;53.166;10.864;2022-12-01T02:58:31;2.60;99.90
14962;DHT22;56489;53.166;10.864;2022-12-01T03:02:01;2.60;99.90
14962;DHT22;56489;53.166;10.864;2022-12-01T03:06:28;2.60;99.90
14962;DHT22;56489;53.166;10.864;2022-12-01T03:11:36;2.50;99.90
14962;DHT22;56489;53.166;10.864;2022-12-01T03:16:52;2.50;99.90
14962;DHT22;56489;53.166;10.864;2022-12-01T03:19:22;2.50;99.90
14962;DHT22;56489;53.166;10.864;2022-12-01T03:21:54;2.60;99.90
14962;DHT22;56489;53.166;10.864;2022-12-01T03:24:23;2.50;99.90
14962;DHT22;56489;53.166;10.864;2022-12-01T03:26:55;2.50;99.90
14962;DHT22;56489;53.166;10.864;2022-12-01T03:29:27;2.50;99.90
14962;DHT22;56489;53.166;10.864;2022-12-01T03:32:02;2.50;99.90
14962;DHT22;56489;53.166;10.864;2022-12-01T03:34:31;2.50;99.90
14962;DHT22;56489;53.166;10.864;2022-12-01T03:37:07;2.50;99.90
14962;DHT22;56489;53.166;10.864;2022-12-01T03:39:35;2.50;99.90
14962;DHT22;56489;53.166;10.864;2022-12-01T03:42:21;2.40;99.90
14962;DHT22;56489;53.166;10.864;2022-12-01T03:44:50;2.30;99.90
14962;DHT22;56489;53.166;10.864;2022-12-01T03:47:23;2.30;99.90
14962;DHT22;56489;53.166;10.864;2022-12-01T03:49:50;2.30;99.90
14962;DHT22;56489;53.166;10.864;2022-12-01T03:57:25;2.30;99.90
14962;DHT22;56489;53.166;10.864;2022-12-01T03:59:54;2.30;99.90
14962;DHT22;56489;53.166;10.864;2022-12-01T04:02:21;2.30;99.90
14962;DHT22;56489;53.166;10.864;2022-12-01T04:04:52;2.20;99.90
14962;DHT22;56489;53.166;10.864;2022-12-01T04:07:19;2.30;99.90
14962;DHT22;56489;53.166;10.864;2022-12-01T04:09:46;2.30;99.90
14962;DHT22;56489;53.166;10.864;2022-12-01T04:12:14;2.30;99.90
14962;DHT22;56489;53.166;10.864;2022-12-01T04:14:56;2.30;99.90
14962;DHT22;56489;53.166;10.864;2022-12-01T04:17:23;2.30;99.90
14962;DHT22;56489;53.166;10.864;2022-12-01T04:19:50;2.30;99.90
14962;DHT22;56489;53.166;10.864;2022-12-01T04:22:18;2.30;99.90
14962;DHT22;56489;53.166;10.864;2022-12-01T04:24:44;2.30;99.90
14962;DHT22;56489;53.166;10.864;2022-12-01T04:27:11;2.30;99.90
14962;DHT22;56489;53.166;10.864;2022-12-01T04:29:38;2.30;99.90
14962;DHT22;56489;53.166;10.864;2022-12-01T04:32:05;2.20;99.90
14962;DHT22;56489;53.166;10.864;2022-12-01T04:34:31;2.30;99.90
14962;DHT22;56489;53.166;10.864;2022-12-01T04:36:58;2.30;99.90
14962;DHT22;56489;53.166;10.864;2022-12-01T04:39:25;2.30;99.90
14962;DHT22;56489;53.166;10.864;2022-12-01T04:41:52;2.50;99.90
14962;DHT22;56489;53.166;10.864;2022-12-01T04:44:19;2.30;99.90
14962;DHT22;56489;53.166;10.864;2022-12-01T04:46:46;2.30;99.90
14962;DHT22;56489;53.166;10.864;2022-12-01T04:49:13;2.30;99.90
14962;DHT22;56489;53.166;10.864;2022-12-01T04:51:40;2.30;99.90
14962;DHT22;56489;53.166;10.864;2022-12-01T04:54:07;2.30;99.90
14962;DHT22;56489;53.166;10.864;2022-12-01T04:56:33;2.40;99.90
14962;DHT22;56489;53.166;10.864;2022-12-01T04:58:59;2.30;99.90
14962;DHT22;56489;53.166;10.864;2022-12-01T05:01:29;2.40;99.90
14962;DHT22;56489;53.166;10.864;2022-12-01T05:03:55;2.40;99.90
14962;DHT22;56489;53.166;10.864;2022-12-01T05:06:23;2.40;99.90
14962;DHT22;56489;53.166;10.864;2022-12-01T05:08:50;2.50;99.90
14962;DHT22;56489;53.166;10.864;2022-12-01T05:11:17;2.40;99.90
14962;DHT22;56489;53.166;10.864;2022-12-01T05:13:45;2.40;99.90
14962;DHT22;56489;53.166;10.864;2022-12-01T05:16:12;2.40;99.90
14962;DHT22;56489;53.166;10.864;2022-12-01T05:18:40;2.40;99.90
14962;DHT22;56489;53.166;10.864;2022-12-01T05:21:07;2.40;99.90
14962;DHT22;56489;53.166;10.864;2022-12-01T05:23:35;2.40;99.90
14962;DHT22;56489;53.166;10.864;2022-12-01T05:26:02;2.40;99.90
14962;DHT22;56489;53.166;10.864;2022-12-01T05:28:30;2.40;99.90
14962;DHT22;56489;53.166;10.864;2022-12-01T05:30:56;2.30;99.90
14962;DHT22;56489;53.166;10.864;2022-12-01T05:33:24;2.30;99.90
14962;DHT22;56489;53.166;10.864;2022-12-01T05:35:51;2.30;99.90
14962;DHT22;56489;53.166;10.864;2022-12-01T05:38:18;2.20;99.90
14962;DHT22;56489;53.166;10.864;2022-12-01T05:40:51;2.20;99.90
14962;DHT22;56489;53.166;10.864;2022-12-01T05:43:19;2.10;99.90
14962;DHT22;56489;53.166;10.864;2022-12-01T05:45:54;2.10;99.90
14962;DHT22;56489;53.166;10.864;2022-12-01T05:48:21;2.20;99.90
14962;DHT22;56489;53.166;10.864;2022-12-01T05:50:48;2.20;99.90
14962;DHT22;56489;53.166;10.864;2022-12-01T05:53:15;2.20;99.90
14962;DHT22;56489;53.166;10.864;2022-12-01T05:55:42;2.30;99.90
14962;DHT22;56489;53.166;10.864;2022-12-01T05:58:09;2.20;99.90
14962;DHT22;56489;53.166;10.864;2022-12-01T06:00:36;2.20;99.90
14962;DHT22;56489;53.166;10.864;2022-12-01T06:03:10;2.20;99.90
14962;DHT22;56489;53.166;10.864;2022-12-01T06:05:37;2.20;99.90
14962;DHT22;56489;53.166;10.864;2022-12-01T06:08:04;2.20;99.90
14962;DHT22;56489;53.166;10.864;2022-12-01T06:10:31;2.20;99.90
14962;DHT22;56489;53.166;10.864;2022-12-01T06:12:57;2.30;99.90
14962;DHT22;56489;53.166;10.864;2022-12-01T06:15:24;2.30;99.90
14962;DHT22;56489;53.166;10.864;2022-12-01T06:17:51;2.30;99.90
14962;DHT22;56489;53.166;10.864;2022-12-01T06:20:18;2.30;99.90
14962;DHT22;56489;53.166;10.864;2022-12-01T06:22:45;2.40;99.90
14962;DHT22;56489;53.166;10.864;2022-12-01T06:25:11;2.40;99.90
14962;DHT22;56489;53.166;10.864;2022-12-01T06:27:38;2.40;99.90
14962;DHT22;56489;53.166;10.864;2022-12-01T06:30:05;2.40;99.90
14962;DHT22;56489;53.166;10.864;2022-12-01T06:32:35;2.40;99.90
14962;DHT22;56489;53.166;10.864;2022-12-01T06:35:02;2.40;99.90
14962;DHT22;56489;53.166;10.864;2022-12-01T06:37:28;2.40;99.90
14962;DHT22;56489;53.166;10.864;2022-12-01T06:39:55;1.80;99.90
14962;DHT22;56489;53.166;10.864;2022-12-01T06:42:22;2.30;99.90
14962;DHT22;56489;53.166;10.864;2022-12-01T06:44:49;2.30;99.90
14962;DHT22;56489;53.166;10.864;2022-12-01T06:47:16;2.20;99.90
14962;DHT22;56489;53.166;10.864;2022-12-01T06:49:42;2.20;99.90
14962;DHT22;56489;53.166;10.864;2022-12-01T06:52:09;2.20;99.90
14962;DHT22;56489;53.166;10.864;2022-12-01T06:54:36;2.20;99.90
14962;DHT22;56489;53.166;10.864;2022-12-01T06:57:03;2.20;99.90
14962;DHT22;56489;53.166;10.864;2022-12-01T06:59:30;2.20;99.90
14962;DHT22;56489;53.166;10.864;2022-12-01T07:01:57;2.30;99.90
14962;DHT22;56489;53.166;10.864;2022-12-01T07:04:24;2.20;99.90
14962;DHT22;56489;53.166;10.864;2022-12-01T07:06:51;2.20;99.90
14962;DHT22;56489;53.166;10.864;2022-12-01T07:09:18;2.20;99.90
14962;DHT22;56489;53.166;10.864;2022-12-01T07:11:44;2.20;99.90
14962;DHT22;56489;53.166;10.864;2022-12-01T07:14:21;2.20;99.90
14962;DHT22;56489;53.166;10.864;2022-12-01T07:16:48;2.30;99.90
14962;DHT22;56489;53.166;10.864;2022-12-01T07:19:15;2.20;99.90
14962;DHT22;56489;53.166;10.864;2022-12-01T07:21:42;2.20;99.90
14962;DHT22;56489;53.166;10.864;2022-12-01T07:24:09;2.20;99.90
14962;DHT22;56489;53.166;10.864;2022-12-01T07:26:38;2.20;99.90
14962;DHT22;56489;53.166;10.864;2022-12-01T07:29:06;2.20;99.90
14962;DHT22;56489;53.166;10.864;2022-12-01T07:31:34;2.20;99.90
14962;DHT22;56489;53.166;10.864;2022-12-01T07:34:01;2.20;99.90
14962;DHT22;56489;53.166;10.864;2022-12-01T07:36:28;2.20;99.90
14962;DHT22;56489;53.166;10.864;2022-12-01T07:38:54;2.20;99.90
14962;DHT22;56489;53.166;10.864;2022-12-01T07:41:21;2.10;99.90
14962;DHT22;56489;53.166;10.864;2022-12-01T07:43:48;2.20;99.90
14962;DHT22;56489;53.166;10.864;2022-12-01T07:46:21;2.20;99.90
14962;DHT22;56489;53.166;10.864;2022-12-01T07:48:51;2.20;99.90
14962;DHT22;56489;53.166;10.864;2022-12-01T07:51:18;2.30;99.90
14962;DHT22;56489;53.166;10.864;2022-12-01T07:53:47;2.30;99.90
14962;DHT22;56489;53.166;10.864;2022-12-01T07:56:14;2.30;99.90
14962;DHT22;56489;53.166;10.864;2022-12-01T07:58:41;2.30;99.90
14962;DHT22;56489;53.166;10.864;2022-12-01T08:01:09;2.30;99.90
14962;DHT22;56489;53.166;10.864;2022-12-01T08:03:37;2.20;99.90
14962;DHT22;56489;53.166;10.864;2022-12-01T08:06:04;2.20;99.90
14962;DHT22;56489;53.166;10.864;2022-12-01T08:08:32;2.20;99.90
14962;DHT22;56489;53.166;10.864;2022-12-01T08:11:01;2.10;99.90
14962;DHT22;56489;53.166;10.864;2022-12-01T08:13:28;2.10;99.90
14962;DHT22;56489;53.166;10.864;2022-12-01T08:15:54;2.10;99.90
14962;DHT22;56489;53.166;10.864;2022-12-01T08:18:22;2.20;99.90
14962;DHT22;56489;53.166;10.864;2022-12-01T08:20:48;2.30;99.90
14962;DHT22;56489;53.166;10.864;2022-12-01T08:23:15;2.20;99.90
14962;DHT22;56489;53.166;10.864;2022-12-01T08:25:42;2.30;99.90
14962;DHT22;56489;53.166;10.864;2022-12-01T08:28:08;2.40;99.90
14962;DHT22;56489;53.166;10.864;2022-12-01T08:30:56;2.50;99.90
14962;DHT22;56489;53.166;10.864;2022-12-01T08:33:23;2.50;99.90
14962;DHT22;56489;53.166;10.864;2022-12-01T08:35:50;2.60;99.90
14962;DHT22;56489;53.166;10.864;2022-12-01T08:38:17;2.70;99.90
14962;DHT22;56489;53.166;10.864;2022-12-01T08:40:44;2.60;99.90
14962;DHT22;56489;53.166;10.864;2022-12-01T08:43:10;2.60;99.90
14962;DHT22;56489;53.166;10.864;2022-12-01T08:45:57;2.70;99.90
14962;DHT22;56489;53.166;10.864;2022-12-01T08:48:24;2.60;99.90
14962;DHT22;56489;53.166;10.864;2022-12-01T08:50:52;2.60;99.90
14962;DHT22;56489;53.166;10.864;2022-12-01T08:53:47;2.60;99.90
14962;DHT22;56489;53.166;10.864;2022-12-01T08:56:16;2.70;99.90
14962;DHT22;56489;53.166;10.864;2022-12-01T08:58:43;2.70;99.90
14962;DHT22;56489;53.166;10.864;2022-12-01T09:01:10;2.70;99.90
14962;DHT22;56489;53.166;10.864;2022-12-01T09:03:38;2.70;99.90
14962;DHT22;56489;53.166;10.864;2022-12-01T09:06:17;2.80;99.90
14962;DHT22;56489;53.166;10.864;2022-12-01T09:08:46;2.70;99.90
14962;DHT22;56489;53.166;10.864;2022-12-01T09:11:14;2.70;99.90
14962;DHT22;56489;53.166;10.864;2022-12-01T09:13:41;2.60;99.90
14962;DHT22;56489;53.166;10.864;2022-12-01T09:16:12;2.50;99.90
14962;DHT22;56489;53.166;10.864;2022-12-01T09:18:40;2.50;99.90
14962;DHT22;56489;53.166;10.864;2022-12-01T09:21:08;2.40;99.90
14962;DHT22;56489;53.166;10.864;2022-12-01T09:23:35;2.40;99.90
14962;DHT22;56489;53.166;10.864;2022-12-01T09:26:01;2.40;99.90
14962;DHT22;56489;53.166;10.864;2022-12-01T09:28:28;2.40;99.90
14962;DHT22;56489;53.166;10.864;2022-12-01T09:30:55;2.40;99.90
14962;DHT22;56489;53.166;10.864;2022-12-01T09:33:22;2.40;99.90
14962;DHT22;56489;53.166;10.864;2022-12-01T09:35:49;2.40;99.90
14962;DHT22;56489;53.166;10.864;2022-12-01T09:38:16;2.40;99.90
14962;DHT22;56489;53.166;10.864;2022-12-01T09:40:42;2.30;99.90
14962;DHT22;56489;53.166;10.864;2022-12-01T09:43:17;2.30;99.90
14962;DHT22;56489;53.166;10.864;2022-12-01T09:45:46;2.40;99.90
14962;DHT22;56489;53.166;10.864;2022-12-01T09:48:19;2.40;99.90
14962;DHT22;56489;53.166;10.864;2022-12-01T09:50:48;2.40;99.90
14962;DHT22;56489;53.166;10.864;2022-12-01T09:53:16;2.40;99.90
14962;DHT22;56489;53.166;10.864;2022-12-01T09:55:45;2.40;99.90
14962;DHT22;56489;53.166;10.864;2022-12-01T09:58:14;2.30;99.90
14962;DHT22;56489;53.166;10.864;2022-12-01T10:00:42;2.30;99.90
14962;DHT22;56489;53.166;10.864;2022-12-01T10:03:14;2.30;99.90
14962;DHT22;56489;53.166;10.864;2022-12-01T10:05:43;2.30;99.90
14962;DHT22;56489;53.166;10.864;2022-12-01T10:08:33;2.30;99.90
14962;DHT22;56489;53.166;10.864;2022-12-01T10:11:12;2.40;99.90
14962;DHT22;56489;53.166;10.864;2022-12-01T10:13:41;2.40;99.90
14962;DHT22;56489;53.166;10.864;2022-12-01T10:16:12;2.50;99.90
14962;DHT22;56489;53.166;10.864;2022-12-01T10:31:27;2.60;99.90
14962;DHT22;56489;53.166;10.864;2022-12-01T10:34:03;2.60;99.90
14962;DHT22;56489;53.166;10.864;2022-12-01T10:36:31;2.60;99.90
14962;DHT22;56489;53.166;10.864;2022-12-01T10:39:00;2.60;99.90
14962;DHT22;56489;53.166;10.864;2022-12-01T10:41:28;2.60;99.90
14962;DHT22;56489;53.166;10.864;2022-12-01T10:43:57;2.60;99.90
14962;DHT22;56489;53.166;10.864;2022-12-01T10:46:32;2.50;99.90
14962;DHT22;56489;53.166;10.864;2022-12-01T10:49:06;2.50;99.90
14962;DHT22;56489;53.166;10.864;2022-12-01T10:51:44;2.60;99.90
14962;DHT22;56489;53.166;10.864;2022-12-01T10:54:11;2.50;99.90
14962;DHT22;56489;53.166;10.864;2022-12-01T10:56:38;2.50;99.90
14962;DHT22;56489;53.166;10.864;2022-12-01T11:01:51;2.50;99.90
14962;DHT22;56489;53.166;10.864;2022-12-01T11:04:33;2.50;99.90
14962;DHT22;56489;53.166;10.864;2022-12-01T11:07:00;2.50;99.90
14962;DHT22;56489;53.166;10.864;2022-12-01T11:09:28;2.50;99.90
14962;DHT22;56489;53.166;10.864;2022-12-01T11:11:56;2.50;99.90
14962;DHT22;56489;53.166;10.864;2022-12-01T11:14:27;2.50;99.90
14962;DHT22;56489;53.166;10.864;2022-12-01T11:16:54;2.50;99.90
14962;DHT22;56489;53.166;10.864;2022-12-01T11:19:31;2.60;99.90
14962;DHT22;56489;53.166;10.864;2022-12-01T11:22:00;2.60;99.90
14962;DHT22;56489;53.166;10.864;2022-12-01T11:24:38;2.60;99.90
14962;DHT22;56489;53.166;10.864;2022-12-01T11:27:17;2.60;99.90
14962;DHT22;56489;53.166;10.864;2022-12-01T11:29:48;2.70;99.90
14962;DHT22;56489;53.166;10.864;2022-12-01T11:32:17;2.70;99.90
14962;DHT22;56489;53.166;10.864;2022-12-01T11:34:52;2.70;99.90
14962;DHT22;56489;53.166;10.864;2022-12-01T11:37:21;2.70;99.90
14962;DHT22;56489;53.166;10.864;2022-12-01T11:39:48;2.70;99.90
14962;DHT22;56489;53.166;10.864;2022-12-01T11:42:23;2.60;99.90
14962;DHT22;56489;53.166;10.864;2022-12-01T11:44:52;2.60;99.90
14962;DHT22;56489;53.166;10.864;2022-12-01T11:47:24;2.70;99.90
14962;DHT22;56489;53.166;10.864;2022-12-01T11:49:58;2.60;99.90
14962;DHT22;56489;53.166;10.864;2022-12-01T11:52:31;2.60;99.90
14962;DHT22;56489;53.166;10.864;2022-12-01T11:54:59;2.60;99.90
14962;DHT22;56489;53.166;10.864;2022-12-01T11:57:35;2.60;99.90
14962;DHT22;56489;53.166;10.864;2022-12-01T12:00:19;2.60;99.90
14962;DHT22;56489;53.166;10.864;2022-12-01T12:02:50;2.60;99.90
14962;DHT22;56489;53.166;10.864;2022-12-01T12:05:38;2.50;99.90
14962;DHT22;56489;53.166;10.864;2022-12-01T12:10:50;2.60;99.90
14962;DHT22;56489;53.166;10.864;2022-12-01T12:26:29;2.50;99.90
14962;DHT22;56489;53.166;10.864;2022-12-01T12:29:03;2.50;99.90
14962;DHT22;56489;53.166;10.864;2022-12-01T12:32:00;2.50;99.90
14962;DHT22;56489;53.166;10.864;2022-12-01T12:34:38;2.50;99.90
14962;DHT22;56489;53.166;10.864;2022-12-01T12:45:30;2.60;99.90
14962;DHT22;56489;53.166;10.864;2022-12-01T12:50:42;2.50;99.90
14962;DHT22;56489;53.166;10.864;2022-12-01T12:53:15;2.60;99.90
14962;DHT22;56489;53.166;10.864;2022-12-01T12:55:51;2.60;99.90
14962;DHT22;56489;53.166;10.864;2022-12-01T12:58:23;2.60;99.90
14962;DHT22;56489;53.166;10.864;2022-12-01T13:00:53;2.60;99.90
14962;DHT22;56489;53.166;10.864;2022-12-01T13:03:26;2.50;99.90
14962;DHT22;56489;53.166;10.864;2022-12-01T13:06:01;2.50;99.90
14962;DHT22;56489;53.166;10.864;2022-12-01T13:08:35;2.50;99.90
14962;DHT22;56489;53.166;10.864;2022-12-01T13:11:05;2.50;99.90
14962;DHT22;56489;53.166;10.864;2022-12-01T13:16:20;2.50;99.90
14962;DHT22;56489;53.166;10.864;2022-12-01T13:18:57;2.50;99.90
14962;DHT22;56489;53.166;10.864;2022-12-01T13:21:29;2.50;99.90
14962;DHT22;56489;53.166;10.864;2022-12-01T13:23:57;2.40;99.90
14962;DHT22;56489;53.166;10.864;2022-12-01T13:26:24;2.40;99.90
14962;DHT22;56489;53.166;10.864;2022-12-01T13:28:52;2.50;99.90
14962;DHT22;56489;53.166;10.864;2022-12-01T13:31:20;2.60;99.90
14962;DHT22;56489;53.166;10.864;2022-12-01T13:33:54;2.60;99.90
14962;DHT22;56489;53.166;10.864;2022-12-01T13:36:22;2.60;99.90
14962;DHT22;56489;53.166;10.864;2022-12-01T13:39:16;2.60;99.90
14962;DHT22;56489;53.166;10.864;2022-12-01T13:41:45;2.60;99.90
14962;DHT22;56489;53.166;10.864;2022-12-01T13:44:23;2.50;99.90
14962;DHT22;56489;53.166;10.864;2022-12-01T13:46:52;2.50;99.90
14962;DHT22;56489;53.166;10.864;2022-12-01T13:57:28;2.50;99.90
14962;DHT22;56489;53.166;10.864;2022-12-01T14:02:26;2.50;99.90
14962;DHT22;56489;53.166;10.864;2022-12-01T14:04:53;2.50;99.90
14962;DHT22;56489;53.166;10.864;2022-12-01T14:09:55;2.60;99.90
14962;DHT22;56489;53.166;10.864;2022-12-01T14:12:24;2.60;99.90
14962;DHT22;56489;53.166;10.864;2022-12-01T14:15:02;2.60;99.90
14962;DHT22;56489;53.166;10.864;2022-12-01T14:17:30;2.60;99.90
14962;DHT22;56489;53.166;10.864;2022-12-01T14:20:04;2.70;99.90
14962;DHT22;56489;53.166;10.864;2022-12-01T14:22:36;2.60;99.90
14962;DHT22;56489;53.166;10.864;2022-12-01T14:25:03;2.70;99.90
14962;DHT22;56489;53.166;10.864;2022-12-01T14:27:34;2.60;99.90
14962;DHT22;56489;53.166;10.864;2022-12-01T14:32:46;2.60;99.90
14962;DHT22;56489;53.166;10.864;2022-12-01T14:35:13;2.50;99.90
14962;DHT22;56489;53.166;10.864;2022-12-01T14:37:41;2.50;99.90
14962;DHT22;56489;53.166;10.864;2022-12-01T14:40:14;2.50;99.90
14962;DHT22;56489;53.166;10.864;2022-12-01T14:42:43;2.50;99.90
14962;DHT22;56489;53.166;10.864;2022-12-01T14:45:33;2.40;99.90
14962;DHT22;56489;53.166;10.864;2022-12-01T14:48:01;2.40;99.90
14962;DHT22;56489;53.166;10.864;2022-12-01T14:50:34;2.40;99.90
14962;DHT22;56489;53.166;10.864;2022-12-01T14:53:21;2.40;99.90
14962;DHT22;56489;53.166;10.864;2022-12-01T14:55:52;2.40;99.90
14962;DHT22;56489;53.166;10.864;2022-12-01T14:58:26;2.50;99.90
14962;DHT22;56489;53.166;10.864;2022-12-01T15:03:20;2.40;99.90
14962;DHT22;56489;53.166;10.864;2022-12-01T15:05:50;2.40;99.90
14962;DHT22;56489;53.166;10.864;2022-12-01T15:08:21;2.40;99.90
14962;DHT22;56489;53.166;10.864;2022-12-01T15:11:27;2.50;99.90
14962;DHT22;56489;53.166;10.864;2022-12-01T15:13:55;2.50;99.90
14962;DHT22;56489;53.166;10.864;2022-12-01T15:16:24;2.60;99.90
14962;DHT22;56489;53.166;10.864;2022-12-01T15:18:52;2.50;99.90
14962;DHT22;56489;53.166;10.864;2022-12-01T15:21:22;2.50;99.90
14962;DHT22;56489;53.166;10.864;2022-12-01T15:23:54;2.50;99.90
14962;DHT22;56489;53.166;10.864;2022-12-01T15:26:23;2.50;99.90
14962;DHT22;56489;53.166;10.864;2022-12-01T15:29:01;2.50;99.90
14962;DHT22;56489;53.166;10.864;2022-12-01T15:31:28;2.50;99.90
14962;DHT22;56489;53.166;10.864;2022-12-01T15:33:55;2.50;99.90
14962;DHT22;56489;53.166;10.864;2022-12-01T15:36:22;2.50;99.90
14962;DHT22;56489;53.166;10.864;2022-12-01T15:38:48;2.50;99.90
14962;DHT22;56489;53.166;10.864;2022-12-01T15:41:16;2.50;99.90
14962;DHT22;56489;53.166;10.864;2022-12-01T15:43:59;2.50;99.90
14962;DHT22;56489;53.166;10.864;2022-12-01T15:46:31;2.50;99.90
14962;DHT22;56489;53.166;10.864;2022-12-01T15:49:07;2.50;99.90
14962;DHT22;56489;53.166;10.864;2022-12-01T15:51:34;2.50;99.90
14962;DHT22;56489;53.166;10.864;2022-12-01T15:54:01;2.50;99.90
14962;DHT22;56489;53.166;10.864;2022-12-01T15:56:29;2.50;99.90
14962;DHT22;56489;53.166;10.864;2022-12-01T15:59:00;2.50;99.90
14962;DHT22;56489;53.166;10.864;2022-12-01T16:01:28;2.50;99.90
14962;DHT22;56489;53.166;10.864;2022-12-01T16:04:03;2.50;99.90
14962;DHT22;56489;53.166;10.864;2022-12-01T16:06:32;2.50;99.90
14962;DHT22;56489;53.166;10.864;2022-12-01T16:09:04;2.50;99.90
14962;DHT22;56489;53.166;10.864;2022-12-01T16:11:31;2.50;99.90
14962;DHT22;56489;53.166;10.864;2022-12-01T16:14:03;2.50;99.90
14962;DHT22;56489;53.166;10.864;2022-12-01T16:16:43;2.50;99.90
14962;DHT22;56489;53.166;10.864;2022-12-01T16:21:48;2.60;99.90
14962;DHT22;56489;53.166;10.864;2022-12-01T16:26:49;2.50;99.90
14962;DHT22;56489;53.166;10.864;2022-12-01T16:29:17;2.50;99.90
14962;DHT22;56489;53.166;10.864;2022-12-01T16:31:45;2.50;99.90
14962;DHT22;56489;53.166;10.864;2022-12-01T16:34:32;2.50;99.90
14962;DHT22;56489;53.166;10.864;2022-12-01T16:37:12;2.50;99.90
14962;DHT22;56489;53.166;10.864;2022-12-01T16:39:39;2.50;99.90
14962;DHT22;56489;53.166;10.864;2022-12-01T16:42:09;2.50;99.90
14962;DHT22;56489;53.166;10.864;2022-12-01T16:44:36;2.50;99.90
14962;DHT22;56489;53.166;10.864;2022-12-01T16:47:08;2.50;99.90
14962;DHT22;56489;53.166;10.864;2022-12-01T16:49:35;2.50;99.90
14962;DHT22;56489;53.166;10.864;2022-12-01T16:52:01;2.60;99.90
14962;DHT22;56489;53.166;10.864;2022-12-01T16:54:48;2.50;99.90
14962;DHT22;56489;53.166;10.864;2022-12-01T16:57:16;2.50;99.90
14962;DHT22;56489;53.166;10.864;2022-12-01T16:59:43;2.50;99.90
14962;DHT22;56489;53.166;10.864;2022-12-01T17:02:10;2.50;99.90
14962;DHT22;56489;53.166;10.864;2022-12-01T17:04:37;2.50;99.90
14962;DHT22;56489;53.166;10.864;2022-12-01T17:07:03;2.50;99.90
14962;DHT22;56489;53.166;10.864;2022-12-01T17:09:30;2.50;99.90
14962;DHT22;56489;53.166;10.864;2022-12-01T17:11:57;2.40;99.90
14962;DHT22;56489;53.166;10.864;2022-12-01T17:14:24;2.40;99.90
14962;DHT22;56489;53.166;10.864;2022-12-01T17:16:51;2.40;99.90
14962;DHT22;56489;53.166;10.864;2022-12-01T17:19:18;2.40;99.90
14962;DHT22;56489;53.166;10.864;2022-12-01T17:21:44;2.40;99.90
14962;DHT22;56489;53.166;10.864;2022-12-01T17:24:11;2.30;99.90
14962;DHT22;56489;53.166;10.864;2022-12-01T17:26:44;2.30;99.90
14962;DHT22;56489;53.166;10.864;2022-12-01T17:29:10;2.30;99.90
14962;DHT22;56489;53.166;10.864;2022-12-01T17:31:37;2.40;99.90